sensor_id;sensor_type;location;lat;lon;timestamp;temperature;humidity
12370;DHT22;6249;52.128;9.986;2023-06-01T00:01:52;13.70;99.90
12370;DHT22;6249;52.128;9.986;2023-06-01T00:11:53;13.60;99.90
12370;DHT22;6249;52.128;9.986;2023-06-01T00:21:54;13.20;99.90
12370;DHT22;6249;52.128;9.986;2023-06-01T00:31:58;13.00;99.90
12370;DHT22;6249;52.128;9.986;2023-06-01T00:41:58;13.00;99.90
12370;DHT22;6249;52.128;9.986;2023-06-01T00:52:02;13.00;99.90
12370;DHT22;6249;52.128;9.986;2023-06-01T01:02:05;13.00;99.90
12370;DHT22;6249;52.128;9.986;2023-06-01T01:12:32;13.10;99.90
12370;DHT22;6249;52.128;9.986;2023-06-01T01:33:07;12.80;99.90
12370;DHT22;6249;52.128;9.986;2023-06-01T01:43:10;12.60;99.90
12370;DHT22;6249;52.128;9.986;2023-06-01T01:53:13;12.40;99.90
12370;DHT22;6249;52.128;9.986;2023-06-01T02:03:19;12.30;99.90
12370;DHT22;6249;52.128;9.986;2023-06-01T02:13:21;12.30;99.90
12370;DHT22;6249;52.128;9.986;2023-06-01T02:23:22;12.30;99.90
12370;DHT22;6249;52.128;9.986;2023-06-01T02:33:23;12.20;99.90
12370;DHT22;6249;52.128;9.986;2023-06-01T02:43:25;12.10;99.90
12370;DHT22;6249;52.128;9.986;2023-06-01T02:53:30;12.10;99.90
12370;DHT22;6249;52.128;9.986;2023-06-01T03:03:31;12.30;99.90
12370;DHT22;6249;52.128;9.986;2023-06-01T03:13:32;12.40;99.90
12370;DHT22;6249;52.128;9.986;2023-06-01T03:23:35;12.40;99.90
12370;DHT22;6249;52.128;9.986;2023-06-01T03:33:38;12.20;99.90
12370;DHT22;6249;52.128;9.986;2023-06-01T03:43:41;12.20;99.90
12370;DHT22;6249;52.128;9.986;2023-06-01T03:53:44;12.30;99.90
12370;DHT22;6249;52.128;9.986;2023-06-01T04:03:46;12.30;99.90
12370;DHT22;6249;52.128;9.986;2023-06-01T04:13:48;12.20;99.90
12370;DHT22;6249;52.128;9.986;2023-06-01T04:23:49;12.30;99.90
12370;DHT22;6249;52.128;9.986;2023-06-01T04:33:50;12.20;99.90
12370;DHT22;6249;52.128;9.986;2023-06-01T04:43:56;12.30;99.90
12370;DHT22;6249;52.128;9.986;2023-06-01T04:53:59;12.40;99.90
12370;DHT22;6249;52.128;9.986;2023-06-01T05:04:04;12.30;99.90
12370;DHT22;6249;52.128;9.986;2023-06-01T05:14:07;12.50;99.90
12370;DHT22;6249;52.128;9.986;2023-06-01T05:24:10;12.80;99.90
12370;DHT22;6249;52.128;9.986;2023-06-01T05:34:14;12.50;99.90
12370;DHT22;6249;52.128;9.986;2023-06-01T05:44:15;12.30;99.90
12370;DHT22;6249;52.128;9.986;2023-06-01T05:54:16;12.40;99.90
12370;DHT22;6249;52.128;9.986;2023-06-01T06:04:21;12.80;99.90
12370;DHT22;6249;52.128;9.986;2023-06-01T06:14:22;13.00;99.90
12370;DHT22;6249;52.128;9.986;2023-06-01T06:24:22;13.10;99.90
12370;DHT22;6249;52.128;9.986;2023-06-01T06:34:25;13.10;99.90
12370;DHT22;6249;52.128;9.986;2023-06-01T06:44:26;12.90;99.90
12370;DHT22;6249;52.128;9.986;2023-06-01T06:54:27;13.10;99.90
12370;DHT22;6249;52.128;9.986;2023-06-01T07:04:28;13.10;99.90
12370;DHT22;6249;52.128;9.986;2023-06-01T07:14:31;13.20;99.90
12370;DHT22;6249;52.128;9.986;2023-06-01T07:24:34;13.30;99.90
12370;DHT22;6249;52.128;9.986;2023-06-01T07:34:37;13.30;99.90
12370;DHT22;6249;52.128;9.986;2023-06-01T07:44:38;13.10;99.90
12370;DHT22;6249;52.128;9.986;2023-06-01T07:54:38;13.20;99.90
12370;DHT22;6249;52.128;9.986;2023-06-01T08:04:39;13.30;99.90
12370;DHT22;6249;52.128;9.986;2023-06-01T08:14:40;13.20;99.90
12370;DHT22;6249;52.128;9.986;2023-06-01T08:24:41;13.30;99.90
12370;DHT22;6249;52.128;9.986;2023-06-01T08:34:46;13.50;99.90
12370;DHT22;6249;52.128;9.986;2023-06-01T08:44:53;14.10;99.90
12370;DHT22;6249;52.128;9.986;2023-06-01T08:54:58;14.40;99.90
12370;DHT22;6249;52.128;9.986;2023-06-01T09:05:02;14.80;99.90
12370;DHT22;6249;52.128;9.986;2023-06-01T09:15:08;14.50;99.90
12370;DHT22;6249;52.128;9.986;2023-06-01T09:25:09;14.70;99.90
12370;DHT22;6249;52.128;9.986;2023-06-01T09:35:10;14.60;99.90
12370;DHT22;6249;52.128;9.986;2023-06-01T09:45:21;14.90;99.90
12370;DHT22;6249;52.128;9.986;2023-06-01T09:55:24;15.10;99.90
12370;DHT22;6249;52.128;9.986;2023-06-01T10:05:25;15.20;99.90
12370;DHT22;6249;52.128;9.986;2023-06-01T10:15:30;14.80;99.90
12370;DHT22;6249;52.128;9.986;2023-06-01T10:25:39;14.80;99.90
12370;DHT22;6249;52.128;9.986;2023-06-01T10:45:41;15.40;99.90
12370;DHT22;6249;52.128;9.986;2023-06-01T10:55:42;15.50;99.90
12370;DHT22;6249;52.128;9.986;2023-06-01T11:26:38;15.90;99.90
12370;DHT22;6249;52.128;9.986;2023-06-01T11:36:46;15.70;99.90
12370;DHT22;6249;52.128;9.986;2023-06-01T11:46:55;15.90;99.90
12370;DHT22;6249;52.128;9.986;2023-06-01T11:56:59;16.40;99.90
12370;DHT22;6249;52.128;9.986;2023-06-01T12:07:06;16.30;99.90
12370;DHT22;6249;52.128;9.986;2023-06-01T12:17:09;16.40;99.90
12370;DHT22;6249;52.128;9.986;2023-06-01T12:27:18;16.50;99.90
12370;DHT22;6249;52.128;9.986;2023-06-01T12:37:22;17.00;99.90
12370;DHT22;6249;52.128;9.986;2023-06-01T12:47:23;16.80;99.90
12370;DHT22;6249;52.128;9.986;2023-06-01T12:57:26;16.90;99.90
12370;DHT22;6249;52.128;9.986;2023-06-01T13:07:29;17.10;99.90
12370;DHT22;6249;52.128;9.986;2023-06-01T13:17:32;17.30;99.90
12370;DHT22;6249;52.128;9.986;2023-06-01T13:27:33;17.60;99.90
12370;DHT22;6249;52.128;9.986;2023-06-01T13:37:34;18.20;99.90
12370;DHT22;6249;52.128;9.986;2023-06-01T13:47:36;18.00;99.90
12370;DHT22;6249;52.128;9.986;2023-06-01T13:57:37;18.00;99.90
12370;DHT22;6249;52.128;9.986;2023-06-01T14:07:38;18.80;99.90
12370;DHT22;6249;52.128;9.986;2023-06-01T14:17:41;18.80;99.90
12370;DHT22;6249;52.128;9.986;2023-06-01T14:27:45;19.00;99.90
12370;DHT22;6249;52.128;9.986;2023-06-01T14:37:45;19.20;99.90
12370;DHT22;6249;52.128;9.986;2023-06-01T14:47:48;18.80;99.90
12370;DHT22;6249;52.128;9.986;2023-06-01T14:57:48;19.10;99.90
12370;DHT22;6249;52.128;9.986;2023-06-01T15:07:49;19.60;99.90
12370;DHT22;6249;52.128;9.986;2023-06-01T15:17:50;18.70;99.90
12370;DHT22;6249;52.128;9.986;2023-06-01T15:27:51;18.10;99.90
12370;DHT22;6249;52.128;9.986;2023-06-01T15:37:51;17.30;99.90
12370;DHT22;6249;52.128;9.986;2023-06-01T15:47:52;18.00;99.90
12370;DHT22;6249;52.128;9.986;2023-06-01T15:57:56;17.80;99.90
12370;DHT22;6249;52.128;9.986;2023-06-01T16:07:56;17.80;99.90
12370;DHT22;6249;52.128;9.986;2023-06-01T16:17:59;17.60;99.90
12370;DHT22;6249;52.128;9.986;2023-06-01T16:28:02;17.30;99.90
12370;DHT22;6249;52.128;9.986;2023-06-01T16:38:05;17.20;99.90
12370;DHT22;6249;52.128;9.986;2023-06-01T16:48:06;17.40;99.90
12370;DHT22;6249;52.128;9.986;2023-06-01T16:58:07;17.60;99.90
12370;DHT22;6249;52.128;9.986;2023-06-01T17:08:08;17.20;99.90
12370;DHT22;6249;52.128;9.986;2023-06-01T17:18:08;16.90;99.90
12370;DHT22;6249;52.128;9.986;2023-06-01T17:28:11;16.70;99.90
12370;DHT22;6249;52.128;9.986;2023-06-01T17:38:12;16.60;99.90
12370;DHT22;6249;52.128;9.986;2023-06-01T17:48:15;16.50;99.90
12370;DHT22;6249;52.128;9.986;2023-06-01T17:58:18;16.60;99.90
12370;DHT22;6249;52.128;9.986;2023-06-01T18:08:21;16.20;99.90
12370;DHT22;6249;52.128;9.986;2023-06-01T18:18:26;16.40;99.90
12370;DHT22;6249;52.128;9.986;2023-06-01T18:28:27;16.00;99.90
12370;DHT22;6249;52.128;9.986;2023-06-01T18:38:27;15.70;99.90
12370;DHT22;6249;52.128;9.986;2023-06-01T18:48:28;15.60;99.90
12370;DHT22;6249;52.128;9.986;2023-06-01T18:58:34;15.30;99.90
12370;DHT22;6249;52.128;9.986;2023-06-01T19:08:34;15.10;99.90
12370;DHT22;6249;52.128;9.986;2023-06-01T19:18:38;14.80;99.90
12370;DHT22;6249;52.128;9.986;2023-06-01T19:28:38;14.50;99.90
12370;DHT22;6249;52.128;9.986;2023-06-01T19:38:39;14.30;99.90
12370;DHT22;6249;52.128;9.986;2023-06-01T19:48:40;14.10;99.90
12370;DHT22;6249;52.128;9.986;2023-06-01T19:58:41;13.80;99.90
12370;DHT22;6249;52.128;9.986;2023-06-01T20:08:42;13.80;99.90
12370;DHT22;6249;52.128;9.986;2023-06-01T20:18:43;13.80;99.90
12370;DHT22;6249;52.128;9.986;2023-06-01T20:28:52;13.70;99.90
12370;DHT22;6249;52.128;9.986;2023-06-01T20:38:57;13.70;99.90
12370;DHT22;6249;52.128;9.986;2023-06-01T20:49:02;13.70;99.90
12370;DHT22;6249;52.128;9.986;2023-06-01T20:59:17;13.60;99.90
12370;DHT22;6249;52.128;9.986;2023-06-01T21:09:22;13.60;99.90
12370;DHT22;6249;52.128;9.986;2023-06-01T21:19:23;13.30;99.90
12370;DHT22;6249;52.128;9.986;2023-06-01T21:29:24;13.20;99.90
12370;DHT22;6249;52.128;9.986;2023-06-01T21:39:25;13.00;99.90
12370;DHT22;6249;52.128;9.986;2023-06-01T21:49:28;12.90;99.90
12370;DHT22;6249;52.128;9.986;2023-06-01T21:59:28;12.90;99.90
12370;DHT22;6249;52.128;9.986;2023-06-01T22:09:31;12.80;99.90
12370;DHT22;6249;52.128;9.986;2023-06-01T22:19:34;12.80;99.90
12370;DHT22;6249;52.128;9.986;2023-06-01T22:29:37;12.70;99.90
12370;DHT22;6249;52.128;9.986;2023-06-01T22:39:38;12.60;99.90
12370;DHT22;6249;52.128;9.986;2023-06-01T22:49:43;12.60;99.90
12370;DHT22;6249;52.128;9.986;2023-06-01T22:59:48;12.40;99.90
12370;DHT22;6249;52.128;9.986;2023-06-01T23:09:54;12.20;99.90
12370;DHT22;6249;52.128;9.986;2023-06-01T23:19:57;12.20;99.90
12370;DHT22;6249;52.128;9.986;2023-06-01T23:30:00;12.10;99.90
12370;DHT22;6249;52.128;9.986;2023-06-01T23:40:01;12.10;99.90
12370;DHT22;6249;52.128;9.986;2023-06-01T23:50:02;12.10;99.90
